Angleton, TX

12:05 AM CST on December 20, 2014 (GMT -0600)
Angleton, West Side | Change Station
CLOSE
Current Station
Personal Weather Station
Location: Angleton, TX
Elevation: 30 ft
Nearby Weather Stations

Elev 30 ft 29.16 °N, 95.44 °W | Updated 2 minutes ago

Overcast
Overcast
56.3 °F
Feels Like 56.3 °F
N
4.7
Wind Variable Wind from NNE
Gusts 4.7 mph

Today
High -- | Low -- °F
--% Chance of Precip.
Yesterday
High -- | Low -- °F
Precip. -- in
7:11 AM 5:27 PM
Waning Crescent, 4% visible
Pressure 30.12 in
Visibility 8.0 miles
Clouds Overcast 600 ft
Dew Point 51 °F
Humidity 82%
Rainfall 0.71 in
Snow Depth Not available.
UV 0 out of 12
Pollen .80 out of 12
Air Quality Not available.
Flu Activity Not available.
METAR KLBX 200553Z AUTO 01011KT 8SM -RA OVC006 12/12 A3012 RMK AO2 RAB50 CIG 004V008 SLP197 P0000 60000 T01170117 10122 20117 401670117 51008

More Conditions Fewer Conditions

Pressure 30.12 in
Visibility 8.0 miles
Clouds Overcast 600 ft
Dew Point 51 °F
Humidity 82%
Rainfall 0.71 in
Snow Depth Not available.
UV 0 out of 12
Pollen .80 out of 12
Air Quality Not available.
Flu Activity Not available.
METAR KLBX 200553Z AUTO 01011KT 8SM -RA OVC006 12/12 A3012 RMK AO2 RAB50 CIG 004V008 SLP197 P0000 60000 T01170117 10122 20117 401670117 51008

More Conditions Fewer Conditions

10-Day Weather Forecast

Almanac

Astronomy

Dec. 20, 2014 Rise Set
Actual Time
Civil Twilight
Nautical Twilight
Astronomical Twilight
Moon
Length of Visible Light
Length of Day
Tomorrow will be .
, % of the Moon is Illuminated

Today's Extremes

State Highs State Lows

Community

WunderPhotos

Upload Photos

1,779,144 photos uploaded!

WunderBlogs® & News

Nearby

Air Quality

  Air Quality AQ Index Pollutant
Not available.

Snow Depth

Station Depth Elevation

Earthquake Activity

City Distance Mag. Time & Date
Minimum magnitude displayed is 2.5.

Coastal Water Temperatures

Place Temperature

Nearby Weather Stations